Terminal Aerodrome Forecast
Issued by NWS Jackson, KY

Home | Current Version | Previous Version | Text Only | Print | Product List | Glossary On
Versions: 1 2 3 4 5 6 7 8 9 10 11 12 13 14 15 16
000
FTUS43 KJKL 161700
TAFJKL
TAF
KJKL 161740Z 1618/1718 VRB03KT 5SM BR VCSH OVC004
     FM162000 VRB03KT P6SM VCSH SCT008 BKN015
     FM170400 00000KT 3SM BR SCT004 BKN025
     FM170700 00000KT 1/4SM FG VV002
     FM171230 VRB03KT 2SM BR SCT004 BKN008 OVC020
     FM171400 VRB05KT P6SM SCT008 BKN020=

USA.gov is the U.S. government's official web portal to all federal, state and local government web resources and services.